Terminal Aerodrome Forecast
Issued by NWS Duluth, MN

Home | Current Version | Previous Version | Text Only | Print | Product List | Glossary On
Versions: 1 2 3 4 5 6 7 8 9 10 11 12 13 14 15 16 17 18 19 20 21 22 23 24 25 26 27 28 29 30 31 32 33 34 35 36 37 38 39
000
FTUS43 KDLH 272300
TAFDLH
TAF
KDLH 272332Z 2800/2824 19004KT P6SM FEW050
      TEMPO 2810/2812 4SM BR FEW004
     FM281500 21008KT P6SM FEW040
     FM282100 23010G17KT P6SM SCT050=

USA.gov is the U.S. government's official web portal to all federal, state and local government web resources and services.